createdAt,value
2022-10-30T00:00:42.404Z,95894.75
2022-10-30T00:03:13.886Z,95895.22
2022-10-30T00:05:43.301Z,95894.91
2022-10-30T00:08:11.922Z,95891.78
2022-10-30T00:10:39.150Z,95889.16
2022-10-30T00:13:06.121Z,95892.47
2022-10-30T00:15:33.516Z,95895.78
2022-10-30T00:18:00.653Z,95895.50
2022-10-30T00:20:27.888Z,95895.97
2022-10-30T00:22:55.218Z,95894.28
2022-10-30T00:25:22.298Z,95886.19
2022-10-30T00:27:49.118Z,95892.47
2022-10-30T00:30:16.461Z,95889.50
2022-10-30T00:32:43.891Z,95888.72
2022-10-30T00:35:11.297Z,95887.41
2022-10-30T00:37:39.146Z,95891.59
2022-10-30T00:40:06.939Z,95880.69
2022-10-30T00:42:33.748Z,95889.72
2022-10-30T00:45:00.490Z,95890.16
2022-10-30T00:47:34.762Z,95878.31
2022-10-30T00:50:10.673Z,95892.31
2022-10-30T00:52:43.021Z,95890.38
2022-10-30T00:55:14.041Z,95888.03
2022-10-30T00:57:41.537Z,95890.78
2022-10-30T01:00:11.421Z,95882.19
2022-10-30T01:02:40.383Z,95883.50
2022-10-30T01:05:07.570Z,95884.91
2022-10-30T01:07:36.186Z,95881.41
2022-10-30T01:10:03.734Z,95871.34
2022-10-30T01:12:30.489Z,95863.34
2022-10-30T01:15:00.750Z,95861.56
2022-10-30T01:17:45.883Z,95857.47
2022-10-30T01:20:22.949Z,95858.53
2022-10-30T01:23:15.420Z,95849.88
2022-10-30T01:26:15.788Z,95853.78
2022-10-30T01:29:20.159Z,95855.38
2022-10-30T01:31:50.320Z,95852.31
2022-10-30T01:34:21.377Z,95851.31
2022-10-30T01:37:01.792Z,95857.91
2022-10-30T01:39:35.526Z,95851.50
2022-10-30T01:42:40.029Z,95848.41
2022-10-30T01:45:07.905Z,95838.38
2022-10-30T01:47:53.389Z,95839.41
2022-10-30T01:50:53.756Z,95845.09
2022-10-30T01:53:27.711Z,95847.06
2022-10-30T01:56:00.531Z,95856.53
2022-10-30T01:58:51.032Z,95849.88
2022-10-30T02:01:18.918Z,95845.94
2022-10-30T02:03:47.575Z,95845.47
2022-10-30T02:06:14.358Z,95846.59
2022-10-30T02:08:41.295Z,95837.94
2022-10-30T02:11:10.824Z,95839.50
2022-10-30T02:13:41.569Z,95841.19
2022-10-30T02:16:09.945Z,95827.78
2022-10-30T02:18:36.937Z,95839.88
2022-10-30T02:21:04.209Z,95836.66
2022-10-30T02:23:31.222Z,95833.13
2022-10-30T02:25:58.105Z,95828.81
2022-10-30T02:28:26.755Z,95831.34
2022-10-30T02:30:54.867Z,95831.13
2022-10-30T02:33:21.852Z,95831.06
2022-10-30T02:35:48.683Z,95835.50
2022-10-30T02:38:15.417Z,95835.88
2022-10-30T02:40:42.336Z,95837.41
2022-10-30T02:43:09.150Z,95844.53
2022-10-30T02:45:35.874Z,95833.88
2022-10-30T02:48:03.579Z,95836.75
2022-10-30T02:50:31.990Z,95838.53
2022-10-30T02:52:59.934Z,95848.56
2022-10-30T02:55:27.657Z,95849.81
2022-10-30T02:57:55.138Z,95830.00
2022-10-30T03:00:22.503Z,95845.59
2022-10-30T03:02:55.006Z,95845.31
2022-10-30T03:05:22.275Z,95820.50
2022-10-30T03:07:49.339Z,95855.09
2022-10-30T03:10:16.278Z,95853.41
2022-10-30T03:12:42.980Z,95860.91
2022-10-30T03:15:10.258Z,95840.31
2022-10-30T03:17:37.064Z,95865.81
2022-10-30T03:20:03.961Z,95864.25
2022-10-30T03:22:30.865Z,95863.94
2022-10-30T03:24:57.572Z,95857.78
2022-10-30T03:27:24.459Z,95854.81
2022-10-30T03:29:51.379Z,95857.50
2022-10-30T03:32:18.214Z,95847.81
2022-10-30T03:34:50.629Z,95856.56
2022-10-30T03:37:19.150Z,95849.84
2022-10-30T03:39:45.912Z,95855.41
2022-10-30T03:42:12.701Z,95858.09
2022-10-30T03:44:40.428Z,95855.84
2022-10-30T03:47:08.078Z,95853.53
2022-10-30T03:49:39.903Z,95853.47
2022-10-30T03:52:10.784Z,95860.75
2022-10-30T03:54:37.626Z,95850.53
2022-10-30T03:57:04.487Z,95850.22
2022-10-30T03:59:40.329Z,95844.25
2022-10-30T04:02:27.445Z,95846.59
2022-10-30T04:04:54.223Z,95842.44
2022-10-30T04:07:20.885Z,95824.69
2022-10-30T04:09:48.009Z,95838.25
2022-10-30T04:12:14.767Z,95838.78
2022-10-30T04:14:41.710Z,95841.53
2022-10-30T04:19:40.222Z,95846.66
2022-10-30T04:22:07.737Z,95848.03
2022-10-30T04:24:35.374Z,95847.34
2022-10-30T04:27:02.609Z,95844.66
2022-10-30T04:29:29.466Z,95844.34
2022-10-30T04:31:56.215Z,95836.94
2022-10-30T04:34:23.156Z,95837.09
2022-10-30T04:36:49.988Z,95847.78
2022-10-30T04:39:17.050Z,95844.28
2022-10-30T04:41:44.432Z,95851.91
2022-10-30T04:44:18.312Z,95854.78
2022-10-30T04:46:45.393Z,95845.19
2022-10-30T04:49:12.195Z,95853.91
2022-10-30T04:51:39.972Z,95858.97
2022-10-30T04:54:08.094Z,95857.19
2022-10-30T04:56:37.257Z,95864.09
2022-10-30T04:59:04.715Z,95857.63
2022-10-30T05:01:32.169Z,95858.41
2022-10-30T05:03:59.430Z,95865.09
2022-10-30T05:06:30.353Z,95855.91
2022-10-30T05:08:58.012Z,95858.25
2022-10-30T05:11:32.577Z,95863.50
2022-10-30T05:13:59.625Z,95853.63
2022-10-30T05:16:26.383Z,95869.19
2022-10-30T05:18:54.661Z,95853.94
2022-10-30T05:21:21.998Z,95876.03
2022-10-30T05:23:48.949Z,95871.97
2022-10-30T05:26:16.335Z,95874.34
2022-10-30T05:28:43.074Z,95869.19
2022-10-30T05:31:09.953Z,95867.19
2022-10-30T05:33:55.227Z,95871.34
2022-10-30T05:36:23.955Z,95875.47
2022-10-30T05:38:50.970Z,95881.50
2022-10-30T05:41:28.652Z,95876.44
2022-10-30T05:43:56.163Z,95869.72
2022-10-30T05:46:23.089Z,95864.47
2022-10-30T05:48:50.137Z,95872.44
2022-10-30T05:51:17.925Z,95875.69
2022-10-30T05:53:51.327Z,95870.09
2022-10-30T05:56:20.754Z,95867.00
2022-10-30T05:59:06.141Z,95857.44
2022-10-30T06:01:33.026Z,95864.50
2022-10-30T06:04:03.582Z,95859.22
2022-10-30T06:06:32.797Z,95859.75
2022-10-30T06:08:59.515Z,95861.94
2022-10-30T06:11:53.918Z,95859.19
2022-10-30T06:14:28.247Z,95862.28
2022-10-30T06:16:55.583Z,95870.06
2022-10-30T06:19:42.998Z,95860.84
2022-10-30T06:22:27.009Z,95862.97
2022-10-30T06:24:59.717Z,95854.09
2022-10-30T06:27:40.262Z,95857.03
2022-10-30T06:30:07.609Z,95865.16
2022-10-30T06:32:34.319Z,95861.00
2022-10-30T06:35:02.324Z,95862.63
2022-10-30T06:37:30.247Z,95873.19
2022-10-30T06:40:00.346Z,95869.63
2022-10-30T06:42:51.212Z,95869.06
2022-10-30T06:45:41.519Z,95869.81
2022-10-30T06:48:09.512Z,95863.97
2022-10-30T06:50:41.081Z,95853.34
2022-10-30T06:53:08.242Z,95871.91
2022-10-30T06:55:35.023Z,95879.81
2022-10-30T06:58:20.359Z,95866.75
2022-10-30T07:00:53.631Z,95873.59
2022-10-30T07:03:39.375Z,95873.41
2022-10-30T07:06:06.630Z,95872.25
2022-10-30T07:08:34.145Z,95871.41
2022-10-30T07:11:01.342Z,95867.38
2022-10-30T07:13:33.740Z,95867.94
2022-10-30T07:16:23.084Z,95870.97
2022-10-30T07:18:51.340Z,95866.50
2022-10-30T07:21:18.310Z,95863.28
2022-10-30T07:23:45.316Z,95850.81
2022-10-30T07:26:39.630Z,95861.00
2022-10-30T07:29:29.961Z,95844.25
2022-10-30T07:32:32.187Z,95845.19
2022-10-30T07:35:19.278Z,95844.16
2022-10-30T07:38:12.036Z,95852.13
2022-10-30T07:40:44.831Z,95858.19
2022-10-30T07:43:28.501Z,95843.44
2022-10-30T07:46:21.320Z,95843.44
2022-10-30T07:49:05.563Z,95841.94
2022-10-30T07:51:41.706Z,95841.97
2022-10-30T07:54:09.847Z,95834.59
2022-10-30T07:56:37.334Z,95833.00
2022-10-30T07:59:24.885Z,95827.69
2022-10-30T08:02:02.785Z,95813.75
2022-10-30T08:04:42.401Z,95817.47
2022-10-30T08:07:33.535Z,95816.84
2022-10-30T08:10:00.742Z,95807.59
2022-10-30T08:12:27.693Z,95810.69
2022-10-30T08:14:54.684Z,95787.72
2022-10-30T08:17:21.652Z,95799.13
2022-10-30T08:19:49.710Z,95795.03
2022-10-30T08:22:17.553Z,95793.69
2022-10-30T08:24:50.001Z,95791.34
2022-10-30T08:27:16.909Z,95781.38
2022-10-30T08:29:43.608Z,95790.03
2022-10-30T08:32:10.390Z,95786.16
2022-10-30T08:34:55.686Z,95794.19
2022-10-30T08:37:22.669Z,95791.28
2022-10-30T08:39:49.427Z,95782.50
2022-10-30T08:42:34.241Z,95792.25
2022-10-30T08:45:06.604Z,95794.28
2022-10-30T08:47:59.712Z,95787.50
2022-10-30T08:50:28.563Z,95775.50
2022-10-30T08:52:55.388Z,95778.63
2022-10-30T08:55:22.450Z,95753.44
2022-10-30T08:57:49.420Z,95781.44
2022-10-30T09:00:16.470Z,95772.41
2022-10-30T09:03:04.335Z,95776.06
2022-10-30T09:05:46.171Z,95755.81
2022-10-30T09:08:31.229Z,95758.72
2022-10-30T09:11:22.195Z,95756.63
2022-10-30T09:13:49.114Z,95757.03
2022-10-30T09:16:16.733Z,95752.69
2022-10-30T09:18:43.723Z,95746.38
2022-10-30T09:21:11.144Z,95745.78
2022-10-30T09:23:45.229Z,95749.94
2022-10-30T09:26:30.576Z,95745.88
2022-10-30T09:29:10.684Z,95735.28
2022-10-30T09:31:44.686Z,95722.03
2022-10-30T09:34:15.412Z,95735.75
2022-10-30T09:36:49.601Z,95728.09
2022-10-30T09:39:17.931Z,95727.66
2022-10-30T09:41:51.532Z,95719.31
2022-10-30T09:45:08.026Z,95724.34
2022-10-30T09:47:55.464Z,95702.25
2022-10-30T09:50:41.194Z,95704.69
2022-10-30T09:53:11.756Z,95698.00
2022-10-30T09:55:55.838Z,95699.97
2022-10-30T09:58:35.947Z,95694.00
2022-10-30T10:01:16.485Z,95686.50
2022-10-30T10:04:04.223Z,95684.91
2022-10-30T10:07:01.031Z,95682.06
2022-10-30T10:09:55.723Z,95672.03
2022-10-30T10:12:47.460Z,95663.03
2022-10-30T10:15:17.948Z,95658.75
2022-10-30T10:17:46.425Z,95643.38
2022-10-30T10:20:42.116Z,95648.97
2022-10-30T10:23:18.629Z,95636.75
2022-10-30T10:25:53.512Z,95635.91
2022-10-30T10:28:40.446Z,95629.69
2022-10-30T10:31:22.117Z,95620.59
2022-10-30T10:34:17.281Z,95621.91
2022-10-30T10:37:08.983Z,95627.03
2022-10-30T10:39:50.955Z,95620.19
2022-10-30T10:42:42.999Z,95618.34
2022-10-30T10:45:21.551Z,95606.63
2022-10-30T10:47:57.856Z,95610.78
2022-10-30T10:50:34.626Z,95600.59
2022-10-30T10:53:07.293Z,95592.75
2022-10-30T10:55:37.947Z,95603.09
2022-10-30T10:58:32.134Z,95590.53
2022-10-30T11:00:59.748Z,95588.66
2022-10-30T11:03:49.543Z,95593.41
2022-10-30T11:06:33.504Z,95577.50
2022-10-30T11:09:19.997Z,95569.38
2022-10-30T11:11:48.526Z,95578.16
2022-10-30T11:14:19.026Z,95547.44
2022-10-30T11:16:51.738Z,95567.72
2022-10-30T11:19:19.368Z,95562.59
2022-10-30T11:21:51.627Z,95555.44
2022-10-30T11:24:28.976Z,95555.31
2022-10-30T11:27:20.249Z,95546.50
2022-10-30T11:30:02.200Z,95542.63
2022-10-30T11:32:32.480Z,95534.16
2022-10-30T11:35:08.148Z,95529.25
2022-10-30T11:37:37.191Z,95527.72
2022-10-30T11:40:16.654Z,95525.91
2022-10-30T11:42:47.930Z,95517.28
2022-10-30T11:45:39.787Z,95517.75
2022-10-30T11:48:18.752Z,95509.28
2022-10-30T11:50:49.376Z,95505.25
2022-10-30T11:53:30.347Z,95503.16
2022-10-30T11:55:58.968Z,95500.63
2022-10-30T11:58:32.914Z,95499.25
2022-10-30T12:01:22.719Z,95495.97
2022-10-30T12:03:49.933Z,95490.66
2022-10-30T12:06:18.459Z,95490.28
2022-10-30T12:09:10.498Z,95480.25
2022-10-30T12:11:39.266Z,95481.81
2022-10-30T12:14:06.588Z,95479.81
2022-10-30T12:16:33.994Z,95476.78
2022-10-30T12:19:08.804Z,95472.16
2022-10-30T12:21:39.642Z,95478.88
2022-10-30T12:24:21.127Z,95470.28
2022-10-30T12:26:50.639Z,95454.00
2022-10-30T12:29:22.056Z,95452.69
2022-10-30T12:32:01.151Z,95442.56
2022-10-30T12:35:00.329Z,95456.81
2022-10-30T12:37:41.406Z,95454.75
2022-10-30T12:40:16.673Z,95448.25
2022-10-30T12:42:52.154Z,95448.69
2022-10-30T12:45:24.810Z,95448.59
2022-10-30T12:47:55.977Z,95446.69
2022-10-30T12:50:30.029Z,95453.66
2022-10-30T12:53:06.131Z,95445.78
2022-10-30T12:55:42.675Z,95435.00
2022-10-30T12:58:21.787Z,95433.25
2022-10-30T13:00:58.199Z,95440.25
2022-10-30T13:04:04.141Z,95429.72
2022-10-30T13:06:46.417Z,95436.34
2022-10-30T13:09:25.331Z,95427.56
2022-10-30T13:12:05.257Z,95428.75
2022-10-30T13:14:40.629Z,95424.00
2022-10-30T13:17:14.955Z,95419.13
2022-10-30T13:19:44.749Z,95423.22
2022-10-30T13:22:29.242Z,95419.03
2022-10-30T13:25:25.184Z,95420.16
2022-10-30T13:28:03.877Z,95416.69
2022-10-30T13:30:39.921Z,95409.41
2022-10-30T13:33:28.029Z,95410.25
2022-10-30T13:35:59.646Z,95416.53
2022-10-30T13:38:38.287Z,95413.34
2022-10-30T13:41:33.753Z,95411.19
2022-10-30T13:44:19.769Z,95403.34
2022-10-30T13:46:49.423Z,95406.50
2022-10-30T13:49:34.423Z,95400.50
2022-10-30T13:52:15.207Z,95403.16
2022-10-30T13:55:17.842Z,95424.63
2022-10-30T13:57:50.964Z,95415.38
2022-10-30T14:00:22.141Z,95431.44
2022-10-30T14:03:27.038Z,95421.78
2022-10-30T14:06:12.777Z,95426.22
2022-10-30T14:08:52.355Z,95421.63
2022-10-30T14:11:19.284Z,95414.75
2022-10-30T14:14:05.022Z,95403.47
2022-10-30T14:16:44.733Z,95424.97
2022-10-30T14:19:16.545Z,95419.09
2022-10-30T14:21:52.261Z,95421.78
2022-10-30T14:24:23.840Z,95418.84
2022-10-30T14:26:55.707Z,95431.59
2022-10-30T14:29:34.776Z,95428.75
2022-10-30T14:32:02.471Z,95425.13
2022-10-30T14:34:51.153Z,95427.34
2022-10-30T14:37:37.986Z,95433.91
2022-10-30T14:40:42.196Z,95430.41
2022-10-30T14:43:27.845Z,95439.66
2022-10-30T14:46:01.828Z,95438.81
2022-10-30T14:48:38.395Z,95439.13
2022-10-30T14:51:23.249Z,95439.09
2022-10-30T14:54:00.070Z,95448.53
2022-10-30T14:56:41.007Z,95444.88
2022-10-30T14:59:13.820Z,95443.00
2022-10-30T15:01:56.592Z,95440.25
2022-10-30T15:04:42.188Z,95449.44
2022-10-30T15:07:35.636Z,95437.31
2022-10-30T15:10:20.596Z,95435.84
2022-10-30T15:13:15.350Z,95440.47
2022-10-30T15:15:43.376Z,95433.59
2022-10-30T15:18:20.181Z,95421.75
2022-10-30T15:20:52.854Z,95439.72
2022-10-30T15:23:22.314Z,95438.22
2022-10-30T15:25:54.653Z,95440.50
2022-10-30T15:28:28.625Z,95437.94
2022-10-30T15:31:05.716Z,95441.06
2022-10-30T15:33:37.772Z,95452.84
2022-10-30T15:36:06.004Z,95445.13
2022-10-30T15:38:32.864Z,95440.50
2022-10-30T15:41:03.152Z,95448.31
2022-10-30T15:43:33.691Z,95443.97
2022-10-30T15:46:00.802Z,95428.75
2022-10-30T15:48:34.250Z,95454.41
2022-10-30T15:51:02.360Z,95453.00
2022-10-30T15:53:45.566Z,95454.50
2022-10-30T15:56:28.062Z,95443.66
2022-10-30T15:59:00.885Z,95455.25
2022-10-30T16:01:34.539Z,95457.38
2022-10-30T16:04:01.489Z,95458.56
2022-10-30T16:06:31.307Z,95457.03
2022-10-30T16:08:58.815Z,95468.94
2022-10-30T16:11:27.037Z,95473.16
2022-10-30T16:13:53.868Z,95473.06
2022-10-30T16:16:30.389Z,95480.88
2022-10-30T16:19:02.920Z,95479.78
2022-10-30T16:21:31.135Z,95481.84
2022-10-30T16:24:03.204Z,95483.44
2022-10-30T16:26:36.336Z,95480.47
2022-10-30T16:29:18.390Z,95484.38
2022-10-30T16:31:49.812Z,95488.91
2022-10-30T16:34:32.099Z,95472.25
2022-10-30T16:37:00.059Z,95489.84
2022-10-30T16:39:28.743Z,95492.16
2022-10-30T16:42:02.851Z,95503.28
2022-10-30T16:44:33.579Z,95506.66
2022-10-30T16:47:25.357Z,95504.16
2022-10-30T16:50:06.577Z,95503.22
2022-10-30T16:52:37.841Z,95495.84
2022-10-30T16:55:36.010Z,95501.16
2022-10-30T16:58:03.099Z,95503.69
2022-10-30T17:00:36.613Z,95507.91
2022-10-30T17:03:12.761Z,95508.94
2022-10-30T17:05:43.604Z,95512.94
2022-10-30T17:08:16.214Z,95499.13
2022-10-30T17:11:00.993Z,95501.28
2022-10-30T17:13:41.673Z,95494.41
2022-10-30T17:16:26.972Z,95508.41
2022-10-30T17:18:59.621Z,95493.59
2022-10-30T17:21:42.284Z,95495.94
2022-10-30T17:24:25.764Z,95503.53
2022-10-30T17:26:58.165Z,95510.50
2022-10-30T17:29:37.204Z,95504.81
2022-10-30T17:32:24.563Z,95505.63
2022-10-30T17:35:14.758Z,95506.88
2022-10-30T17:37:42.359Z,95501.84
2022-10-30T17:40:09.485Z,95505.31
2022-10-30T17:42:36.364Z,95505.34
2022-10-30T17:45:07.159Z,95499.09
2022-10-30T17:47:34.182Z,95505.09
2022-10-30T17:50:03.213Z,95500.91
2022-10-30T17:52:30.039Z,95511.41
2022-10-30T17:54:56.824Z,95490.31
2022-10-30T17:57:25.431Z,95506.50
2022-10-30T17:59:52.200Z,95506.66
2022-10-30T18:02:22.458Z,95503.53
2022-10-30T18:04:50.298Z,95506.50
2022-10-30T18:07:17.278Z,95502.56
2022-10-30T18:09:44.795Z,95494.09
2022-10-30T18:12:15.576Z,95507.47
2022-10-30T18:14:43.215Z,95502.72
2022-10-30T18:17:10.530Z,95500.38
2022-10-30T18:19:37.333Z,95500.22
2022-10-30T18:22:04.030Z,95503.66
2022-10-30T18:24:30.769Z,95505.25
2022-10-30T18:26:59.254Z,95502.41
2022-10-30T18:29:26.055Z,95512.97
2022-10-30T18:31:53.077Z,95509.66
2022-10-30T18:34:21.681Z,95506.66
2022-10-30T18:36:49.123Z,95513.41
2022-10-30T18:39:16.378Z,95507.28
2022-10-30T18:41:46.114Z,95511.03
2022-10-30T18:44:17.604Z,95514.47
2022-10-30T18:46:45.421Z,95510.91
2022-10-30T18:49:12.712Z,95512.44
2022-10-30T18:51:40.130Z,95506.34
2022-10-30T18:54:17.087Z,95508.22
2022-10-30T18:56:44.014Z,95506.47
2022-10-30T18:59:10.947Z,95503.50
2022-10-30T19:01:37.917Z,95507.19
2022-10-30T19:04:09.822Z,95510.09
2022-10-30T19:06:38.884Z,95511.53
2022-10-30T19:09:05.996Z,95510.09
2022-10-30T19:11:33.327Z,95522.31
2022-10-30T19:14:00.306Z,95522.00
2022-10-30T19:16:27.464Z,95524.66
2022-10-30T19:18:54.526Z,95518.84
2022-10-30T19:21:24.934Z,95514.78
2022-10-30T19:23:54.710Z,95522.63
2022-10-30T19:26:21.591Z,95521.84
2022-10-30T19:28:48.490Z,95522.97
2022-10-30T19:31:18.362Z,95518.56
2022-10-30T19:33:45.812Z,95523.22
2022-10-30T19:36:34.670Z,95523.59
2022-10-30T19:39:08.669Z,95514.81
2022-10-30T19:41:37.565Z,95519.53
2022-10-30T19:44:04.560Z,95514.94
2022-10-30T19:46:31.655Z,95526.34
2022-10-30T19:48:59.496Z,95525.16
2022-10-30T19:51:28.167Z,95526.72
2022-10-30T19:53:55.094Z,95527.28
2022-10-30T19:56:22.358Z,95519.22
2022-10-30T19:58:50.113Z,95526.50
2022-10-30T20:01:18.937Z,95526.47
2022-10-30T20:03:46.919Z,95534.06
2022-10-30T20:06:14.412Z,95535.78
2022-10-30T20:08:42.080Z,95522.78
2022-10-30T20:11:08.958Z,95545.69
2022-10-30T20:13:37.235Z,95557.94
2022-10-30T20:16:05.526Z,95550.94
2022-10-30T20:18:35.089Z,95541.44
2022-10-30T20:21:09.938Z,95550.06
2022-10-30T20:23:37.354Z,95549.63
2022-10-30T20:26:26.691Z,95554.78
2022-10-30T20:28:53.879Z,95567.16
2022-10-30T20:31:20.671Z,95558.31
2022-10-30T20:33:47.652Z,95559.13
2022-10-30T20:36:14.513Z,95556.28
2022-10-30T20:38:41.399Z,95548.13
2022-10-30T20:41:19.835Z,95558.97
2022-10-30T20:43:46.613Z,95556.06
2022-10-30T20:46:13.241Z,95555.69
2022-10-30T20:48:40.408Z,95557.53
2022-10-30T20:51:07.164Z,95550.84
2022-10-30T20:53:34.471Z,95558.97
2022-10-30T20:56:01.274Z,95550.63
2022-10-30T20:58:28.174Z,95534.16
2022-10-30T21:00:58.898Z,95546.13
2022-10-30T21:03:27.171Z,95543.47
2022-10-30T21:05:58.807Z,95544.09
2022-10-30T21:08:31.669Z,95546.38
2022-10-30T21:11:06.350Z,95549.53
2022-10-30T21:13:34.460Z,95533.56
2022-10-30T21:16:06.770Z,95548.44
2022-10-30T21:18:33.821Z,95548.31
2022-10-30T21:21:02.341Z,95549.03
2022-10-30T21:23:29.252Z,95540.56
2022-10-30T21:26:07.044Z,95547.59
2022-10-30T21:28:34.405Z,95551.31
2022-10-30T21:31:02.558Z,95549.53
2022-10-30T21:33:34.280Z,95538.00
2022-10-30T21:36:16.388Z,95543.22
2022-10-30T21:38:44.652Z,95547.34
2022-10-30T21:41:14.120Z,95545.69
2022-10-30T21:43:40.996Z,95538.75
2022-10-30T21:46:12.285Z,95545.13
2022-10-30T21:48:39.497Z,95546.06
2022-10-30T21:51:15.395Z,95550.94
2022-10-30T21:53:42.820Z,95556.50
2022-10-30T21:56:16.658Z,95562.72
2022-10-30T21:58:44.063Z,95562.22
2022-10-30T22:01:22.177Z,95567.50
2022-10-30T22:03:49.667Z,95544.09
2022-10-30T22:06:20.457Z,95559.88
2022-10-30T22:08:52.190Z,95573.78
2022-10-30T22:11:23.012Z,95577.59
2022-10-30T22:13:57.861Z,95579.28
2022-10-30T22:16:25.962Z,95577.81
2022-10-30T22:18:52.726Z,95581.59
2022-10-30T22:21:19.554Z,95582.25
2022-10-30T22:23:46.605Z,95577.16
2022-10-30T22:26:16.070Z,95580.81
2022-10-30T22:28:43.936Z,95568.88
2022-10-30T22:31:16.731Z,95574.09
2022-10-30T22:33:44.392Z,95565.56
2022-10-30T22:36:20.807Z,95563.22
2022-10-30T22:38:53.540Z,95570.28
2022-10-30T22:41:21.925Z,95549.63
2022-10-30T22:43:49.077Z,95551.56
2022-10-30T22:46:18.377Z,95545.50
2022-10-30T22:48:48.605Z,95556.44
2022-10-30T22:51:16.881Z,95543.16
2022-10-30T22:53:45.987Z,95529.31
2022-10-30T22:56:20.332Z,95538.91
2022-10-30T22:58:48.688Z,95543.56
2022-10-30T23:01:18.224Z,95550.34
2022-10-30T23:03:45.674Z,95540.41
2022-10-30T23:06:13.622Z,95541.78
2022-10-30T23:08:40.674Z,95542.34
2022-10-30T23:11:08.961Z,95540.00
2022-10-30T23:13:36.509Z,95531.81
2022-10-30T23:16:07.439Z,95521.28
2022-10-30T23:18:34.986Z,95523.63
2022-10-30T23:21:07.573Z,95534.63
2022-10-30T23:23:36.131Z,95540.31
2022-10-30T23:26:12.030Z,95545.78
2022-10-30T23:28:38.907Z,95551.22
2022-10-30T23:31:09.895Z,95554.50
2022-10-30T23:33:36.747Z,95549.88
2022-10-30T23:36:04.491Z,95555.97
2022-10-30T23:38:31.360Z,95551.84
2022-10-30T23:40:58.231Z,95556.28
2022-10-30T23:43:25.055Z,95558.16
2022-10-30T23:45:51.799Z,95554.25
2022-10-30T23:48:18.545Z,95555.63
2022-10-30T23:50:45.478Z,95558.22
2022-10-30T23:53:12.192Z,95552.81
2022-10-30T23:55:38.935Z,95554.59
2022-10-30T23:58:06.082Z,95540.91
